Time;durP1;ratioP1;P1;durP2;ratioP2;P2;SDS_P1;SDS_P2;PMS_P1;PMS_P2;Temp;Humidity;BMP_temperature;BMP_pressure;BME280_temperature;BME280_humidity;BME280_pressure;Samples;Min_cycle;Max_cycle;Signal;HPM_P1;HPM_P2
2022/01/17 00:02:20;;;;;;;4.53;1.90;;;;;;;5.04;100.00;101417.81;5093283;28;20509;-72
2022/01/17 00:04:47;;;;;;;3.23;2.00;;;;;;;5.04;100.00;101409.69;5093015;28;20174;-71
2022/01/17 00:07:12;;;;;;;1.90;1.77;;;;;;;5.03;100.00;101408.06;5086114;28;20203;-72
2022/01/17 00:09:38;;;;;;;5.00;2.67;;;;;;;5.06;100.00;101414.84;5084720;28;20185;-72
2022/01/17 00:12:03;;;;;;;2.50;1.80;;;;;;;5.06;100.00;101396.75;5081362;28;20189;-72
2022/01/17 00:14:34;;;;;;;1.77;1.37;;;;;;;5.06;100.00;101409.44;5088309;28;20171;-72
2022/01/17 00:19:56;;;;;;;1.43;1.20;;;;;;;5.05;100.00;101413.22;5070607;28;20178;-72
2022/01/17 00:22:22;;;;;;;1.17;1.07;;;;;;;5.06;100.00;101414.84;5090335;28;20180;-72
2022/01/17 00:24:50;;;;;;;2.43;2.23;;;;;;;5.08;100.00;101420.88;5092625;28;20182;-72
2022/01/17 00:27:15;;;;;;;2.50;0.93;;;;;;;5.11;100.00;101442.03;5092890;28;20197;-72
2022/01/17 00:29:41;;;;;;;2.20;1.50;;;;;;;5.15;100.00;101434.22;5092801;28;20622;-72
2022/01/17 00:32:07;;;;;;;1.03;0.97;;;;;;;5.18;100.00;101458.91;5092855;28;20162;-71
2022/01/17 00:34:34;;;;;;;0.97;0.97;;;;;;;5.21;100.00;101471.97;5090590;28;20633;-72
2022/01/17 00:37:00;;;;;;;26.97;1.93;;;;;;;5.20;100.00;101477.63;5092861;28;20524;-71
2022/01/17 00:39:25;;;;;;;2.23;1.60;;;;;;;5.19;100.00;101476.78;5087682;28;20178;-72
2022/01/17 00:41:51;;;;;;;4.53;2.77;;;;;;;5.22;100.00;101484.44;5084202;28;20177;-72
2022/01/17 00:44:21;;;;;;;2.67;1.13;;;;;;;5.27;100.00;101486.41;5092574;28;20170;-72
2022/01/17 00:46:47;;;;;;;1.23;1.23;;;;;;;5.31;100.00;101482.94;5092186;28;20700;-71
2022/01/17 00:49:13;;;;;;;1.13;1.07;;;;;;;5.31;100.00;101471.28;5092524;28;20205;-72
2022/01/17 00:51:38;;;;;;;3.20;1.43;;;;;;;5.29;100.00;101470.72;5092535;28;20463;-72
2022/01/17 00:54:03;;;;;;;1.30;0.97;;;;;;;5.28;100.00;101453.63;5092364;28;20174;-72
2022/01/17 00:56:29;;;;;;;1.00;0.90;;;;;;;5.26;100.00;101446.84;5090897;28;20213;-72
2022/01/17 00:58:54;;;;;;;2.43;0.37;;;;;;;5.25;100.00;101450.63;5091146;28;20245;-72
2022/01/17 01:01:19;;;;;;;0.70;0.53;;;;;;;5.25;100.00;101450.63;5092566;28;20174;-72
2022/01/17 01:03:45;;;;;;;0.27;0.20;;;;;;;5.22;100.00;101430.25;5091121;28;20504;-72
2022/01/17 01:06:11;;;;;;;2.83;0.80;;;;;;;5.21;100.00;101447.59;5090667;28;20174;-72
2022/01/17 01:08:36;;;;;;;2.00;0.40;;;;;;;5.18;100.00;101441.84;5092305;28;20185;-72
2022/01/17 01:11:01;;;;;;;0.03;0.03;;;;;;;5.13;100.00;101456.13;5092608;28;20170;-72
2022/01/17 01:13:29;;;;;;;0.00;0.00;;;;;;;5.12;100.00;101442.84;5086039;28;20630;-72
2022/01/17 01:28:54;;;;;;;1.03;0.60;;;;;;;4.86;100.00;101456.03;5071867;28;20231;-72
2022/01/17 01:31:31;;;;;;;5.50;0.50;;;;;;;4.81;100.00;101460.56;5070151;28;20182;-72
2022/01/17 01:34:03;;;;;;;0.30;0.30;;;;;;;4.79;100.00;101468.91;5071408;28;20194;-72
2022/01/17 01:36:29;;;;;;;3.03;0.17;;;;;;;4.76;100.00;101459.38;5071365;28;20206;-72
2022/01/17 01:38:55;;;;;;;0.30;0.20;;;;;;;4.78;100.00;101465.41;5071544;28;20205;-71
2022/01/17 01:41:20;;;;;;;7.37;0.63;;;;;;;4.79;100.00;101463.50;5071268;28;20179;-72
2022/01/17 01:43:46;;;;;;;0.43;0.30;;;;;;;4.79;100.00;101466.22;5071145;28;20199;-72
2022/01/17 01:46:17;;;;;;;0.63;0.63;;;;;;;4.77;100.00;101461.06;5070567;28;20178;-72
2022/01/17 01:48:42;;;;;;;2.93;0.30;;;;;;;4.80;100.00;101448.09;5069761;28;20555;-71
2022/01/17 01:51:09;;;;;;;0.10;0.10;;;;;;;4.82;100.00;101471.13;5070222;28;20607;-72
2022/01/17 01:53:35;;;;;;;0.57;0.20;;;;;;;4.84;100.00;101449.22;5071078;28;20170;-72
2022/01/17 01:56:00;;;;;;;1.07;0.20;;;;;;;4.82;100.00;101457.59;5069425;28;20649;-72
2022/01/17 01:58:26;;;;;;;3.97;0.63;;;;;;;4.83;100.00;101450.28;5071005;28;20182;-72
2022/01/17 02:00:52;;;;;;;0.20;0.20;;;;;;;4.85;100.00;101445.44;5069537;28;20202;-72
2022/01/17 02:03:18;;;;;;;0.10;0.10;;;;;;;4.84;100.00;101422.16;5069428;28;20199;-72
2022/01/17 02:05:44;;;;;;;1.57;1.47;;;;;;;4.87;99.72;101408.09;5070626;28;20174;-72
2022/01/17 02:08:13;;;;;;;5.50;0.47;;;;;;;4.87;98.20;101441.41;5071088;28;20332;-72
2022/01/17 02:10:39;;;;;;;10.30;0.73;;;;;;;4.94;95.44;101436.66;5070925;28;20175;-72
2022/01/17 02:13:05;;;;;;;0.13;0.13;;;;;;;4.95;94.58;101446.41;5070754;28;20178;-72
2022/01/17 02:15:31;;;;;;;2.03;0.77;;;;;;;4.96;94.01;101447.22;5070492;28;20170;-72
2022/01/17 02:17:57;;;;;;;0.40;0.40;;;;;;;4.91;94.82;101449.84;5070719;28;20204;-72
2022/01/17 02:20:42;;;;;;;0.00;0.00;;;;;;;4.89;95.42;101460.13;5069382;28;20289;-71
2022/01/17 02:23:08;;;;;;;0.10;0.00;;;;;;;4.86;96.05;101472.25;5069139;28;20196;-72
2022/01/17 02:25:34;;;;;;;0.00;0.00;;;;;;;4.86;96.32;101474.97;5070344;28;20182;-72
2022/01/17 02:28:00;;;;;;;3.93;0.43;;;;;;;4.87;96.48;101483.91;5069253;28;20343;-72
2022/01/17 02:30:27;;;;;;;2.17;0.80;;;;;;;4.86;96.90;101468.75;5069127;28;20182;-71
2022/01/17 02:32:52;;;;;;;0.17;0.03;;;;;;;4.82;97.96;101471.13;5069251;28;20204;-72
2022/01/17 02:35:23;;;;;;;0.70;0.33;;;;;;;4.81;98.26;101455.13;5069039;28;20269;-72
2022/01/17 02:37:49;;;;;;;0.33;0.10;;;;;;;4.78;98.84;101462.69;5069148;28;20183;-72
2022/01/17 02:40:16;;;;;;;0.17;0.00;;;;;;;4.79;99.01;101471.63;5070564;28;20175;-72
2022/01/17 02:42:45;;;;;;;0.00;0.00;;;;;;;4.78;98.63;101451.88;5069336;28;20634;-72
2022/01/17 02:45:20;;;;;;;0.40;0.40;;;;;;;4.79;98.05;101455.38;5070172;28;20179;-71
2022/01/17 02:47:45;;;;;;;2.37;0.40;;;;;;;4.75;98.67;101425.25;5070221;28;20209;-72
2022/01/17 02:50:12;;;;;;;0.03;0.03;;;;;;;4.73;98.83;101413.88;5070324;28;20181;-71
2022/01/17 02:52:37;;;;;;;0.30;0.20;;;;;;;4.70;99.13;101402.72;5069109;28;20177;-71
2022/01/17 02:55:04;;;;;;;6.43;0.83;;;;;;;4.72;98.42;101378.94;5070086;28;20257;-72
2022/01/17 02:57:33;;;;;;;2.63;0.40;;;;;;;4.72;98.37;101406.00;5068997;28;20177;-72
2022/01/17 02:59:58;;;;;;;1.27;1.17;;;;;;;4.73;97.93;101421.16;5073926;28;20171;-71
2022/01/17 03:02:24;;;;;;;2.63;0.67;;;;;;;4.72;98.87;101420.34;5074242;28;20525;-71
2022/01/17 03:04:49;;;;;;;0.50;0.50;;;;;;;4.67;99.20;101431.13;5072828;28;20575;-72
2022/01/17 03:07:14;;;;;;;1.60;1.20;;;;;;;4.69;99.25;101445.22;5074421;28;20595;-71
2022/01/17 03:09:44;;;;;;;0.83;0.47;;;;;;;4.72;98.79;101458.25;5073075;28;20177;-72
2022/01/17 03:12:10;;;;;;;0.97;0.30;;;;;;;4.71;98.86;101463.91;5074642;28;20179;-72
2022/01/17 03:14:35;;;;;;;2.03;1.07;;;;;;;4.70;98.78;101449.56;5074251;28;20175;-72
2022/01/17 03:17:01;;;;;;;0.33;0.00;;;;;;;4.70;98.69;101446.84;5073949;28;20174;-72
2022/01/17 03:19:26;;;;;;;0.37;0.37;;;;;;;4.71;98.23;101444.97;5074162;28;20589;-72
2022/01/17 03:21:52;;;;;;;0.30;0.30;;;;;;;4.73;97.58;101456.38;5073949;28;20311;-72
2022/01/17 03:24:17;;;;;;;6.60;1.20;;;;;;;4.76;96.30;101448.56;5073753;28;20661;-72
2022/01/17 03:26:43;;;;;;;0.20;0.20;;;;;;;4.76;96.24;101445.03;5072408;28;20204;-72
2022/01/17 03:29:08;;;;;;;3.43;1.23;;;;;;;4.78;95.25;101399.59;5073803;28;20176;-72
2022/01/17 03:31:34;;;;;;;5.83;0.77;;;;;;;4.77;94.68;101396.09;5073990;28;20182;-72
2022/01/17 03:33:59;;;;;;;0.40;0.30;;;;;;;4.74;95.24;101388.44;5073863;28;20170;-71
2022/01/17 03:36:25;;;;;;;2.17;1.43;;;;;;;4.73;94.63;101383.28;5072166;28;20605;-71
2022/01/17 03:38:51;;;;;;;1.60;1.10;;;;;;;4.72;94.81;101374.34;5073733;28;20173;-71
2022/01/17 03:41:17;;;;;;;0.73;0.73;;;;;;;4.74;94.50;101374.91;5072277;28;20171;-72
2022/01/17 03:43:42;;;;;;;4.47;0.83;;;;;;;4.76;94.00;101396.31;5072405;28;20665;-72
2022/01/17 03:46:08;;;;;;;1.90;0.20;;;;;;;4.75;94.56;101384.66;5073427;28;20663;-72
2022/01/17 03:48:33;;;;;;;0.37;0.23;;;;;;;4.72;95.06;101371.63;5073445;28;20256;-72
2022/01/17 03:51:00;;;;;;;1.30;0.80;;;;;;;4.72;94.90;101354.56;5073823;28;20178;-72
2022/01/17 03:53:27;;;;;;;3.40;0.37;;;;;;;4.72;94.91;101344.56;5073296;28;20174;-72
2022/01/17 03:55:54;;;;;;;6.53;0.73;;;;;;;4.70;95.19;101354.81;5073201;28;20171;-72
2022/01/17 03:58:21;;;;;;;2.37;1.00;;;;;;;4.65;96.37;101353.94;5078777;28;20185;-72
2022/01/17 04:00:47;;;;;;;0.17;0.17;;;;;;;4.64;96.59;101358.53;5086007;28;20424;-72
2022/01/17 04:03:13;;;;;;;4.57;1.60;;;;;;;4.66;95.97;101353.69;5092056;28;20170;-72
2022/01/17 04:05:39;;;;;;;1.10;0.77;;;;;;;4.66;95.72;101369.94;5090299;28;20185;-71
2022/01/17 04:08:05;;;;;;;3.00;1.60;;;;;;;4.67;96.00;101352.63;5077941;28;20206;-72
2022/01/17 04:10:30;;;;;;;0.63;0.63;;;;;;;4.66;96.07;101366.41;5072956;28;20166;-71
2022/01/17 04:13:01;;;;;;;0.73;0.53;;;;;;;4.69;95.19;101382.97;5072962;28;20265;-72
2022/01/17 04:15:27;;;;;;;0.10;0.10;;;;;;;4.71;94.83;101358.34;5072765;28;20203;-72
2022/01/17 04:17:52;;;;;;;4.20;1.23;;;;;;;4.75;93.95;101333.22;5071733;28;20528;-72
2022/01/17 04:20:26;;;;;;;4.73;1.80;;;;;;;4.74;94.38;101372.19;5073126;28;20178;-72
2022/01/17 04:22:54;;;;;;;0.87;0.87;;;;;;;4.71;95.29;101363.75;5072948;28;20540;-72
2022/01/17 04:25:21;;;;;;;7.00;1.20;;;;;;;4.70;95.17;101343.19;5072729;28;20186;-72
2022/01/17 04:27:48;;;;;;;7.77;0.53;;;;;;;4.80;93.36;101329.78;5072762;28;20203;-72
2022/01/17 04:30:15;;;;;;;8.50;1.50;;;;;;;4.75;93.90;101325.09;5071846;28;20203;-72
2022/01/17 04:32:42;;;;;;;0.77;0.47;;;;;;;4.72;94.44;101322.91;5072761;28;20468;-72
2022/01/17 04:35:09;;;;;;;7.27;0.90;;;;;;;4.73;94.11;101308.31;5071292;28;20213;-72
2022/01/17 04:37:34;;;;;;;0.70;0.53;;;;;;;4.74;94.06;101319.94;5071571;28;20183;-72
2022/01/17 04:40:00;;;;;;;15.37;1.77;;;;;;;4.69;94.96;101333.44;5071333;28;20189;-72
2022/01/17 04:42:28;;;;;;;2.40;0.67;;;;;;;4.66;95.24;101326.63;5071152;28;20723;-72
2022/01/17 04:45:15;;;;;;;5.03;0.83;;;;;;;4.72;94.26;101343.75;5072303;28;20192;-72
2022/01/17 04:47:43;;;;;;;0.90;0.63;;;;;;;4.75;94.46;101360.28;5072931;28;20203;-72
2022/01/17 04:50:13;;;;;;;0.40;0.33;;;;;;;4.74;94.08;101374.91;5072443;28;20182;-71
2022/01/17 04:52:38;;;;;;;5.70;0.30;;;;;;;4.73;94.52;101367.84;5075654;28;20165;-72
2022/01/17 04:55:08;;;;;;;3.93;0.83;;;;;;;4.78;93.78;101369.84;5092390;28;20174;-72
2022/01/17 04:57:34;;;;;;;0.40;0.23;;;;;;;4.77;93.68;101351.91;5092537;28;20614;-72
2022/01/17 04:59:59;;;;;;;7.30;0.60;;;;;;;4.76;94.03;101371.94;5091266;28;20220;-72
2022/01/17 05:02:25;;;;;;;0.67;0.20;;;;;;;4.76;93.83;101371.94;5092806;28;20715;-72
2022/01/17 05:04:51;;;;;;;7.73;1.03;;;;;;;4.76;93.55;101369.25;5090904;28;20520;-71
2022/01/17 05:07:16;;;;;;;0.47;0.27;;;;;;;4.77;93.75;101387.97;5091093;28;20201;-72
2022/01/17 05:09:43;;;;;;;2.10;0.57;;;;;;;4.80;93.06;101356.03;5092539;28;20174;-71
2022/01/17 05:12:10;;;;;;;1.97;0.83;;;;;;;4.81;92.60;101372.03;5092348;28;20166;-72
2022/01/17 05:14:39;;;;;;;3.30;1.27;;;;;;;4.82;93.10;101372.84;5092213;28;20729;-72
2022/01/17 05:17:22;;;;;;;1.03;1.03;;;;;;;4.84;92.34;101351.75;5092073;28;20195;-72
2022/01/17 05:19:54;;;;;;;3.60;1.13;;;;;;;4.83;92.15;101353.66;5090970;28;20173;-72
2022/01/17 05:22:20;;;;;;;4.70;0.23;;;;;;;4.80;93.39;101350.63;5091599;28;20198;-72
2022/01/17 05:24:47;;;;;;;12.13;0.87;;;;;;;4.85;92.41;101351.50;5091737;28;20645;-72
2022/01/17 05:27:13;;;;;;;4.90;0.70;;;;;;;4.83;92.77;101375.31;5091939;28;20224;-72
2022/01/17 05:29:39;;;;;;;2.40;2.23;;;;;;;4.82;93.12;101372.84;5092005;28;20189;-72
2022/01/17 05:32:05;;;;;;;3.43;1.33;;;;;;;4.80;93.54;101334.38;5090800;28;20176;-72
2022/01/17 05:34:34;;;;;;;0.97;0.77;;;;;;;4.81;93.60;101344.16;5092214;28;20260;-72
2022/01/17 05:37:03;;;;;;;1.40;0.83;;;;;;;4.83;93.19;101353.66;5091897;28;20182;-72
2022/01/17 05:39:28;;;;;;;10.73;1.33;;;;;;;4.82;92.99;101360.13;5090541;28;20174;-72
2022/01/17 05:41:54;;;;;;;3.20;1.33;;;;;;;4.82;93.19;101338.47;5090518;28;20230;-72
2022/01/17 05:44:19;;;;;;;3.17;0.70;;;;;;;4.85;93.61;101339.84;5091937;28;20311;-72
2022/01/17 05:46:44;;;;;;;3.17;0.67;;;;;;;4.86;93.50;101355.03;5091543;28;20206;-71
2022/01/17 05:49:10;;;;;;;0.87;0.87;;;;;;;4.84;93.68;101344.44;5090600;28;20174;-71
2022/01/17 05:51:35;;;;;;;5.03;0.87;;;;;;;4.82;93.66;101341.19;5091800;28;20179;-72
2022/01/17 05:54:00;;;;;;;5.33;1.10;;;;;;;4.83;94.00;101348.22;5093038;28;20178;-72
2022/01/17 05:56:26;;;;;;;0.77;0.77;;;;;;;4.85;94.10;101356.09;5100841;28;20481;-71
2022/01/17 05:58:51;;;;;;;0.43;0.43;;;;;;;4.82;94.58;101359.31;5092471;28;20174;-71
2022/01/17 06:01:16;;;;;;;4.33;1.37;;;;;;;4.85;94.46;101346.09;5091750;28;20634;-71
2022/01/17 06:03:42;;;;;;;0.77;0.73;;;;;;;4.78;95.46;101346.28;5090260;28;20174;-72
2022/01/17 06:06:07;;;;;;;3.37;0.30;;;;;;;4.74;96.28;101344.31;5091506;28;20180;-71
2022/01/17 06:08:33;;;;;;;1.00;0.17;;;;;;;4.69;97.28;101339.66;5091794;28;20251;-72
2022/01/17 06:10:59;;;;;;;1.93;1.07;;;;;;;4.71;97.40;101339.41;5091383;28;20641;-72
2022/01/17 06:13:24;;;;;;;2.47;0.67;;;;;;;4.67;97.90;101354.50;5090235;28;20177;-71
2022/01/17 06:15:50;;;;;;;0.00;0.00;;;;;;;4.72;98.26;101396.00;5091026;28;20178;-72
2022/01/17 06:18:16;;;;;;;1.43;0.10;;;;;;;4.72;98.00;101377.03;5090952;28;20177;-72
2022/01/17 06:20:42;;;;;;;0.70;0.60;;;;;;;4.73;98.55;101392.22;5089652;28;20213;-73
2022/01/17 06:23:07;;;;;;;1.93;1.13;;;;;;;4.74;98.77;101379.50;5091015;28;20268;-72
2022/01/17 06:25:32;;;;;;;5.73;1.43;;;;;;;4.78;98.23;101381.47;5090823;28;20626;-72
2022/01/17 06:27:58;;;;;;;7.00;4.70;;;;;;;4.83;97.89;101393.44;5090700;28;20717;-72
2022/01/17 06:30:24;;;;;;;6.27;2.53;;;;;;;4.85;97.77;101384.00;5089517;28;20463;-71
2022/01/17 06:32:49;;;;;;;7.93;1.20;;;;;;;4.83;97.63;101383.44;5089925;28;20280;-71
2022/01/17 06:35:15;;;;;;;1.40;0.10;;;;;;;4.84;97.53;101376.13;5089383;28;20181;-72
2022/01/17 06:37:40;;;;;;;0.30;0.30;;;;;;;4.82;97.79;101376.38;5089963;28;20182;-72
2022/01/17 06:40:07;;;;;;;12.70;2.40;;;;;;;4.83;97.82;101390.72;5089702;28;20548;-71
2022/01/17 06:42:33;;;;;;;6.23;0.83;;;;;;;4.84;97.37;101384.25;5090845;28;20664;-72
2022/01/17 06:45:02;;;;;;;1.70;0.30;;;;;;;4.87;97.04;101373.72;5091024;28;20174;-72
2022/01/17 06:47:27;;;;;;;1.30;1.20;;;;;;;4.85;97.29;101356.91;5090812;28;20822;-72
2022/01/17 06:49:52;;;;;;;1.47;0.83;;;;;;;4.85;97.22;101373.16;5089515;28;20247;-72
2022/01/17 06:52:18;;;;;;;5.30;0.83;;;;;;;4.85;97.30;101356.91;5090801;28;20180;-72
2022/01/17 06:54:43;;;;;;;3.83;1.33;;;;;;;4.87;97.46;101375.63;5089336;28;20420;-72
2022/01/17 06:57:08;;;;;;;3.93;0.87;;;;;;;4.88;97.55;101386.19;5090671;28;20178;-72
2022/01/17 06:59:34;;;;;;;2.60;0.77;;;;;;;4.82;97.84;101389.09;5089458;28;20269;-71
2022/01/17 07:01:59;;;;;;;2.70;1.20;;;;;;;4.84;98.53;101389.66;5090662;28;20203;-72
2022/01/17 07:04:24;;;;;;;1.17;0.80;;;;;;;4.85;98.27;101399.41;5089486;28;20621;-72
2022/01/17 07:06:50;;;;;;;0.67;0.50;;;;;;;4.90;98.14;101415.72;5078567;28;20194;-72
2022/01/17 07:09:19;;;;;;;4.00;2.10;;;;;;;4.89;98.25;101433.03;5069138;28;20795;-72
2022/01/17 07:11:44;;;;;;;0.93;0.73;;;;;;;4.93;97.90;101445.84;5070304;28;20193;-71
2022/01/17 07:14:10;;;;;;;0.93;0.40;;;;;;;5.01;97.42;101447.28;5070637;28;20631;-72
2022/01/17 07:16:40;;;;;;;4.47;0.40;;;;;;;5.06;97.02;101417.56;5068956;28;20174;-72
2022/01/17 07:19:06;;;;;;;0.17;0.10;;;;;;;5.03;96.85;101404.53;5070760;28;20178;-72
2022/01/17 07:21:32;;;;;;;5.20;1.90;;;;;;;4.98;96.71;101386.34;5069251;28;20175;-72
2022/01/17 07:23:58;;;;;;;0.33;0.33;;;;;;;4.98;97.14;101369.28;5070139;28;20273;-71
2022/01/17 07:26:24;;;;;;;0.20;0.20;;;;;;;5.04;96.91;101362.84;5068629;28;20593;-71
2022/01/17 07:28:49;;;;;;;1.80;1.43;;;;;;;5.07;96.88;101381.31;5078456;28;20171;-72
2022/01/17 07:31:18;;;;;;;1.03;0.73;;;;;;;5.08;96.91;101382.94;5086814;28;20174;-72
2022/01/17 07:33:44;;;;;;;0.63;0.43;;;;;;;5.05;97.49;101380.72;5078015;28;20186;-71
2022/01/17 07:36:15;;;;;;;1.27;1.17;;;;;;;5.00;97.91;101378.78;5081748;28;20181;-72
2022/01/17 07:38:41;;;;;;;0.57;0.53;;;;;;;4.99;98.56;101384.44;5090433;28;20251;-72
2022/01/17 07:41:08;;;;;;;1.70;0.93;;;;;;;4.95;98.86;101369.78;5090345;28;20223;-72
2022/01/17 07:43:34;;;;;;;0.30;0.13;;;;;;;5.03;99.09;101372.03;5079777;28;20178;-72
2022/01/17 07:46:17;;;;;;;1.77;0.10;;;;;;;4.98;99.18;101361.97;5071813;28;20251;-73
2022/01/17 07:51:27;;;;;;;2.57;1.37;;;;;;;4.93;100.00;101355.69;5080868;28;20246;-72
2022/01/17 07:53:54;;;;;;;1.40;1.30;;;;;;;4.93;100.00;101363.81;5075344;28;20193;-72
2022/01/17 07:56:20;;;;;;;3.13;0.90;;;;;;;4.93;100.00;101380.88;5073545;28;20182;-72
2022/01/17 07:58:46;;;;;;;3.43;1.93;;;;;;;4.97;100.00;101375.75;5082661;28;20187;-72
2022/01/17 08:01:11;;;;;;;1.03;0.30;;;;;;;5.02;100.00;101368.50;5088424;28;20181;-72
2022/01/17 08:03:37;;;;;;;1.00;0.00;;;;;;;5.02;100.00;101390.16;5093667;28;20196;-72
2022/01/17 08:06:02;;;;;;;0.20;0.20;;;;;;;5.04;100.00;101392.63;5078314;28;20215;-72
2022/01/17 08:08:28;;;;;;;5.07;1.77;;;;;;;5.07;100.00;101379.44;5083301;28;20241;-72
2022/01/17 08:10:53;;;;;;;0.93;0.53;;;;;;;5.13;100.00;101369.47;5088571;28;20186;-72
2022/01/17 08:13:19;;;;;;;0.77;0.77;;;;;;;5.18;100.00;101377.63;5072045;28;20538;-72
2022/01/17 08:15:46;;;;;;;0.10;0.10;;;;;;;5.20;100.00;101385.50;5073173;28;20265;-72
2022/01/17 08:18:12;;;;;;;0.20;0.20;;;;;;;5.20;100.00;101388.22;5071895;28;20566;-72
2022/01/17 08:20:38;;;;;;;1.40;1.33;;;;;;;5.19;100.00;101383.88;5071902;28;20178;-72
2022/01/17 08:23:03;;;;;;;2.27;0.60;;;;;;;5.20;100.00;101361.13;5073053;28;20190;-72
2022/01/17 08:25:29;;;;;;;3.50;0.93;;;;;;;5.24;100.00;101365.81;5071847;28;20261;-72
2022/01/17 08:27:55;;;;;;;9.03;0.87;;;;;;;5.31;100.00;101350.16;5073125;28;20771;-72
2022/01/17 08:30:20;;;;;;;1.63;0.33;;;;;;;5.32;100.00;101348.28;5071724;28;20198;-72
2022/01/17 08:32:46;;;;;;;8.90;0.63;;;;;;;5.37;100.00;101342.94;5071687;28;20182;-72
2022/01/17 08:35:11;;;;;;;0.53;0.53;;;;;;;5.31;100.00;101369.13;5071317;28;20271;-72
2022/01/17 08:37:37;;;;;;;1.43;0.97;;;;;;;5.32;100.00;101359.94;5071181;28;20723;-72
2022/01/17 08:40:06;;;;;;;1.40;0.93;;;;;;;5.36;100.00;101362.97;5073749;28;20260;-72
2022/01/17 08:42:36;;;;;;;1.40;1.03;;;;;;;5.29;100.00;101360.44;5071469;28;20231;-73
2022/01/17 08:45:03;;;;;;;0.93;0.93;;;;;;;5.29;100.00;101362.34;5073004;28;20210;-73
2022/01/17 08:47:28;;;;;;;7.23;1.70;;;;;;;5.30;100.00;101366.69;5071292;28;20263;-72
2022/01/17 08:49:54;;;;;;;0.87;0.87;;;;;;;5.27;100.00;101378.03;5072796;28;20183;-73
2022/01/17 08:52:20;;;;;;;1.30;0.77;;;;;;;5.27;100.00;101369.91;5072708;28;20170;-72
2022/01/17 08:54:46;;;;;;;4.47;0.60;;;;;;;5.30;100.00;101380.22;5072466;28;20645;-72
2022/01/17 08:57:12;;;;;;;0.10;0.10;;;;;;;5.32;100.00;101392.44;5071509;28;20193;-72
2022/01/17 08:59:38;;;;;;;9.70;0.83;;;;;;;5.34;100.00;101375.94;5072547;28;20171;-73
2022/01/17 09:02:04;;;;;;;2.83;0.50;;;;;;;5.38;100.00;101390.63;5071193;28;20669;-73
2022/01/17 09:04:29;;;;;;;0.97;0.93;;;;;;;5.39;100.00;101397.69;5072419;28;20219;-73
2022/01/17 09:06:55;;;;;;;1.37;0.60;;;;;;;5.44;100.00;101383.38;5070946;28;20206;-72
2022/01/17 09:09:20;;;;;;;8.20;2.37;;;;;;;5.44;100.00;101381.47;5071089;28;20183;-72
2022/01/17 09:11:45;;;;;;;0.20;0.20;;;;;;;5.53;100.00;101398.94;5072430;28;20181;-72
2022/01/17 09:14:11;;;;;;;0.77;0.40;;;;;;;5.57;100.00;101393.81;5071112;28;20178;-72
2022/01/17 09:16:36;;;;;;;1.33;0.77;;;;;;;5.58;100.00;101414.41;5070663;28;20683;-72
2022/01/17 09:19:04;;;;;;;13.60;0.87;;;;;;;5.55;100.00;101423.06;5066413;28;20181;-73
2022/01/17 09:21:30;;;;;;;0.10;0.10;;;;;;;5.52;100.00;101396.47;5081053;28;20642;-72
2022/01/17 09:23:58;;;;;;;1.70;1.40;;;;;;;5.50;100.00;101402.16;5087670;28;20178;-72
2022/01/17 09:26:27;;;;;;;0.40;0.40;;;;;;;5.54;100.00;101372.66;5071849;28;20213;-72
2022/01/17 09:28:54;;;;;;;1.27;1.23;;;;;;;5.52;100.00;101386.44;5072022;28;20231;-72
2022/01/17 09:31:21;;;;;;;2.93;0.77;;;;;;;5.51;100.00;101413.81;5072078;28;20568;-72
2022/01/17 09:33:46;;;;;;;5.40;2.63;;;;;;;5.53;100.00;101404.34;5072003;28;20186;-74
2022/01/17 09:36:12;;;;;;;0.23;0.23;;;;;;;5.55;100.00;101394.06;5071824;28;20182;-72
2022/01/17 09:38:38;;;;;;;1.73;1.03;;;;;;;5.65;100.00;101377.09;5070555;28;20210;-75
2022/01/17 09:41:04;;;;;;;0.50;0.50;;;;;;;5.68;100.00;101399.09;5070573;28;20235;-73
2022/01/17 09:43:29;;;;;;;0.30;0.30;;;;;;;5.73;100.00;101420.00;5071423;28;20182;-71
2022/01/17 09:45:56;;;;;;;1.30;1.20;;;;;;;5.79;100.00;101434.47;5070787;28;20170;-73
2022/01/17 09:48:24;;;;;;;0.20;0.20;;;;;;;5.82;100.00;101445.59;5071064;28;20343;-71
2022/01/17 09:51:08;;;;;;;4.37;0.43;;;;;;;5.87;100.00;101432.09;5071663;28;20170;-70
2022/01/17 09:53:38;;;;;;;8.87;1.23;;;;;;;5.96;100.00;101417.03;5069310;28;20231;-72
2022/01/17 09:56:06;;;;;;;9.93;1.10;;;;;;;5.97;100.00;101434.13;5068578;28;20275;-72
2022/01/17 09:58:35;;;;;;;0.77;0.30;;;;;;;5.94;100.00;101442.78;5069721;28;20332;-72
2022/01/17 10:01:03;;;;;;;10.33;1.33;;;;;;;5.97;100.00;101423.28;5071589;28;20209;-76
2022/01/17 10:03:29;;;;;;;0.57;0.57;;;;;;;6.02;100.00;101414.34;5070073;28;20677;-72
2022/01/17 10:05:55;;;;;;;0.83;0.67;;;;;;;6.04;100.00;101439.31;5070098;28;20224;-71
2022/01/17 10:08:22;;;;;;;1.30;1.20;;;;;;;6.03;100.00;101462.94;5071368;28;20210;-72
2022/01/17 10:10:59;;;;;;;1.63;1.57;;;;;;;6.00;100.00;101466.16;5071360;28;20178;-72
2022/01/17 10:13:37;;;;;;;1.40;0.87;;;;;;;5.96;100.00;101446.06;5070995;28;20181;-71
2022/01/17 10:16:11;;;;;;;3.47;2.00;;;;;;;5.88;100.00;101431.00;5071329;28;20198;-71
2022/01/17 10:18:49;;;;;;;3.17;1.13;;;;;;;5.88;100.00;101411.22;5060558;28;20190;-71
2022/01/17 10:21:31;;;;;;;1.10;0.37;;;;;;;5.90;100.00;101420.75;5083190;28;20205;-71
2022/01/17 10:30:42;;;;;;;0.30;0.30;;;;;;;6.05;100.00;101435.53;5101774;28;20754;-71
2022/01/17 10:35:18;;;;;;;1.97;0.17;;;;;;;6.12;100.00;101455.16;5091028;28;20189;-71
2022/01/17 10:38:17;;;;;;;0.50;0.30;;;;;;;6.17;100.00;101475.00;5090802;28;20229;-71
2022/01/17 10:40:49;;;;;;;1.17;1.10;;;;;;;6.31;100.00;101425.75;5091801;28;20180;-70
2022/01/17 10:43:34;;;;;;;2.30;0.63;;;;;;;6.38;100.00;101435.31;5092044;28;20178;-71
2022/01/17 10:46:04;;;;;;;4.77;0.40;;;;;;;6.43;100.00;101443.50;5090717;28;20178;-72
2022/01/17 10:48:44;;;;;;;20.57;1.90;;;;;;;6.45;100.00;101463.03;5089409;28;20206;-71
2022/01/17 10:51:11;;;;;;;0.97;0.43;;;;;;;6.45;100.00;101468.47;5088879;28;20398;-71
2022/01/17 10:53:39;;;;;;;0.30;0.30;;;;;;;6.43;100.00;101476.06;5090285;28;20699;-72
2022/01/17 10:56:08;;;;;;;7.80;1.03;;;;;;;6.46;100.00;101497.25;5091130;28;20185;-71
2022/01/17 10:58:36;;;;;;;1.00;0.90;;;;;;;6.44;100.00;101474.97;5090805;28;20170;-71
2022/01/17 11:01:05;;;;;;;10.13;0.83;;;;;;;6.45;100.00;101498.34;5090485;28;20668;-72
2022/01/17 11:03:34;;;;;;;1.83;1.20;;;;;;;6.48;100.00;101484.25;5090533;28;20185;-71
2022/01/17 11:06:06;;;;;;;4.67;0.87;;;;;;;6.51;100.00;101472.06;5090408;28;20174;-71
2022/01/17 11:08:33;;;;;;;0.47;0.47;;;;;;;6.55;100.00;101465.84;5082087;28;20669;-72
2022/01/17 11:11:01;;;;;;;1.40;1.00;;;;;;;6.55;100.00;101484.03;5069371;28;20193;-71
2022/01/17 11:13:30;;;;;;;1.83;0.60;;;;;;;6.49;100.00;101496.72;5069565;28;20174;-71
2022/01/17 11:15:58;;;;;;;0.87;0.60;;;;;;;6.39;100.00;101498.56;5069009;28;20269;-71
2022/01/17 11:18:27;;;;;;;1.70;1.50;;;;;;;6.31;100.00;101480.03;5068704;28;20178;-72
2022/01/17 11:20:58;;;;;;;1.00;0.80;;;;;;;6.23;100.00;101448.75;5072126;28;20216;-72
2022/01/17 11:23:24;;;;;;;6.23;2.03;;;;;;;6.20;100.00;101452.78;5072528;28;20194;-72
2022/01/17 11:25:55;;;;;;;0.53;0.37;;;;;;;6.20;100.00;101460.09;5072378;28;20181;-71
2022/01/17 11:28:26;;;;;;;0.60;0.60;;;;;;;6.25;100.00;101466.41;5073751;28;20214;-71
2022/01/17 11:30:55;;;;;;;1.13;0.73;;;;;;;6.30;100.00;101464.81;5072586;28;20182;-72
2022/01/17 11:33:21;;;;;;;1.53;1.43;;;;;;;6.31;100.00;101469.16;5073658;28;20375;-72
2022/01/17 11:35:51;;;;;;;2.23;1.30;;;;;;;6.33;100.00;101458.88;5073523;28;20211;-72
2022/01/17 11:38:20;;;;;;;0.53;0.53;;;;;;;6.31;100.00;101472.69;5072383;28;20177;-72
2022/01/17 11:40:46;;;;;;;0.73;0.57;;;;;;;6.32;100.00;101468.09;5073560;28;20816;-72
2022/01/17 11:43:35;;;;;;;6.03;0.97;;;;;;;6.28;100.00;101467.78;5073721;28;20216;-72
2022/01/17 11:46:18;;;;;;;0.83;0.63;;;;;;;6.22;100.00;101456.06;5073307;28;20201;-72
2022/01/17 11:48:50;;;;;;;1.13;1.13;;;;;;;6.22;100.00;101479.66;5072133;28;20206;-72
2022/01/17 11:51:16;;;;;;;6.90;0.30;;;;;;;6.22;100.00;101466.09;5072022;28;20178;-72
2022/01/17 11:53:45;;;;;;;0.97;0.80;;;;;;;6.30;100.00;101465.63;5072069;28;20166;-71
2022/01/17 11:56:33;;;;;;;1.70;0.90;;;;;;;6.34;100.00;101496.59;5073070;28;20179;-72
2022/01/17 11:58:59;;;;;;;0.43;0.37;;;;;;;6.34;100.00;101484.94;5073334;28;20630;-72